createdAt,value
2022-08-08T00:03:31.912Z,23.6
2022-08-08T00:08:34.078Z,23.6
2022-08-08T00:14:16.289Z,23.6
2022-08-08T00:19:23.879Z,23.6
2022-08-08T00:24:29.812Z,23.6
2022-08-08T00:29:44.520Z,23.7
2022-08-08T00:34:48.034Z,23.7
2022-08-08T00:41:06.289Z,23.7
2022-08-08T00:46:16.319Z,23.7
2022-08-08T00:51:18.927Z,23.7
2022-08-08T00:56:21.008Z,23.8
2022-08-08T01:01:29.585Z,23.8
2022-08-08T01:06:39.558Z,23.8
2022-08-08T01:11:41.560Z,23.8
2022-08-08T01:16:43.206Z,23.9
2022-08-08T01:22:03.948Z,23.9
2022-08-08T01:27:16.053Z,23.9
2022-08-08T01:32:17.946Z,23.9
2022-08-08T01:37:37.163Z,23.9
2022-08-08T01:42:59.340Z,24
2022-08-08T01:48:15.368Z,24
2022-08-08T01:55:18.244Z,24.1
2022-08-08T02:01:28.003Z,24.1
2022-08-08T02:06:56.241Z,24.1
2022-08-08T02:11:59.388Z,24.1
2022-08-08T02:17:02.075Z,24.1
2022-08-08T02:22:03.674Z,24.1
2022-08-08T02:27:05.928Z,24.2
2022-08-08T02:32:08.430Z,24.2
2022-08-08T02:37:51.737Z,24.2
2022-08-08T02:43:00.790Z,24.2
2022-08-08T02:49:47.670Z,24.3
2022-08-08T02:54:52.819Z,24.3
2022-08-08T02:59:56.814Z,24.3
2022-08-08T03:05:02.107Z,24.3
2022-08-08T03:10:17.778Z,24.3
2022-08-08T03:15:54.807Z,24.3
2022-08-08T03:21:09.861Z,24.4
2022-08-08T03:26:11.965Z,24.4
2022-08-08T03:31:22.393Z,24.4
2022-08-08T03:36:27.760Z,24.4
2022-08-08T03:42:04.362Z,24.4
2022-08-08T03:47:39.551Z,24.4
2022-08-08T03:52:47.348Z,24.5
2022-08-08T03:58:10.137Z,24.5
2022-08-08T04:03:57.634Z,24.5
2022-08-08T04:09:06.866Z,24.6
2022-08-08T04:14:33.652Z,24.6
2022-08-08T04:19:37.074Z,24.6
2022-08-08T04:24:40.138Z,24.6
2022-08-08T04:29:44.848Z,24.6
2022-08-08T04:35:02.582Z,24.6
2022-08-08T04:40:07.706Z,24.6
2022-08-08T04:45:12.193Z,24.7
2022-08-08T04:50:24.514Z,24.7
2022-08-08T04:55:29.295Z,24.7
2022-08-08T05:00:50.045Z,24.7
2022-08-08T05:05:53.569Z,24.7
2022-08-08T05:10:55.370Z,24.7
2022-08-08T05:16:48.743Z,24.7
2022-08-08T05:22:01.654Z,24.7
2022-08-08T05:27:03.322Z,24.8
2022-08-08T05:32:06.363Z,24.8
2022-08-08T05:37:16.134Z,24.8
2022-08-08T05:42:25.670Z,24.8
2022-08-08T05:47:29.820Z,24.9
2022-08-08T05:52:43.414Z,24.9
2022-08-08T05:58:03.756Z,24.9
2022-08-08T06:03:06.770Z,24.9
2022-08-08T06:08:09.292Z,24.9
2022-08-08T06:13:12.362Z,24.9
2022-08-08T06:18:18.891Z,24.9
2022-08-08T06:23:26.428Z,24.9
2022-08-08T06:28:54.017Z,25
2022-08-08T06:34:26.822Z,25
2022-08-08T06:39:33.370Z,25
2022-08-08T06:44:38.359Z,25
2022-08-08T06:49:56.084Z,25.1
2022-08-08T06:54:58.770Z,25.1
2022-08-08T07:00:02.693Z,25.1
2022-08-08T07:05:20.225Z,24.8
2022-08-08T07:10:22.403Z,24.7
2022-08-08T07:15:32.476Z,24.6
2022-08-08T07:21:05.388Z,24.7
2022-08-08T07:26:21.676Z,24.7
2022-08-08T07:31:30.623Z,24.7
2022-08-08T07:36:37.140Z,24.7
2022-08-08T07:41:59.055Z,24.7
2022-08-08T07:47:06.566Z,24.7
2022-08-08T07:52:09.222Z,24.7
2022-08-08T07:57:16.888Z,24.7
2022-08-08T08:02:33.832Z,24.8
2022-08-08T08:07:38.851Z,24.8
2022-08-08T08:12:43.134Z,24.7
2022-08-08T08:17:48.040Z,24.7
2022-08-08T08:22:50.986Z,24.7
2022-08-08T08:27:53.438Z,24.7
2022-08-08T08:32:55.085Z,24.8
2022-08-08T08:38:14.951Z,24.8
2022-08-08T08:43:19.022Z,24.8
2022-08-08T08:48:20.750Z,24.9
2022-08-08T08:53:27.077Z,24.9
2022-08-08T08:58:56.987Z,24.9
2022-08-08T09:03:59.661Z,24.9
2022-08-08T09:09:01.332Z,24.9
2022-08-08T09:14:02.961Z,24.9
2022-08-08T09:19:04.615Z,24.9
2022-08-08T09:24:06.442Z,24.9
2022-08-08T09:29:08.532Z,24.9
2022-08-08T09:34:30.070Z,24.7
2022-08-08T09:39:34.557Z,24.6
2022-08-08T09:44:38.335Z,24.6
2022-08-08T09:49:50.095Z,24.6
2022-08-08T09:54:53.210Z,24.6
2022-08-08T10:00:28.586Z,24.7
2022-08-08T10:05:31.250Z,24.7
2022-08-08T10:10:34.525Z,24.7
2022-08-08T10:15:39.151Z,24.7
2022-08-08T10:20:44.906Z,24.7
2022-08-08T10:25:56.374Z,24.7
2022-08-08T10:31:00.905Z,24.7
2022-08-08T10:36:09.819Z,24.7
2022-08-08T10:41:24.107Z,24.7
2022-08-08T10:46:37.026Z,24.8
2022-08-08T10:51:41.098Z,24.8
2022-08-08T10:56:52.871Z,24.8
2022-08-08T11:01:55.117Z,24.8
2022-08-08T11:06:57.137Z,24.9
2022-08-08T11:12:06.672Z,24.9
2022-08-08T11:17:15.862Z,24.9
2022-08-08T11:22:17.586Z,24.9
2022-08-08T11:27:23.297Z,24.9
2022-08-08T11:32:29.219Z,24.9
2022-08-08T11:38:34.714Z,24.9
2022-08-08T11:43:41.834Z,24.9
2022-08-08T11:48:44.945Z,24.9
2022-08-08T11:53:55.409Z,25
2022-08-08T11:59:02.750Z,25
2022-08-08T12:04:04.897Z,25
2022-08-08T12:09:07.011Z,25
2022-08-08T12:14:11.138Z,25.1
2022-08-08T12:19:13.487Z,25.1
2022-08-08T12:24:15.450Z,25.1
2022-08-08T12:29:17.761Z,25.1
2022-08-08T12:34:20.875Z,24.9
2022-08-08T12:39:37.090Z,24.6
2022-08-08T12:45:01.467Z,24.6
2022-08-08T12:50:03.393Z,24.6
2022-08-08T12:55:09.119Z,24.6
2022-08-08T13:00:18.334Z,24.6
2022-08-08T13:05:26.117Z,24.6
2022-08-08T13:10:39.902Z,24.6
2022-08-08T13:15:57.218Z,24.6
2022-08-08T13:20:58.856Z,24.7
2022-08-08T13:26:03.941Z,24.7
2022-08-08T13:31:05.955Z,24.7
2022-08-08T13:36:07.613Z,24.7
2022-08-08T13:41:16.325Z,24.7
2022-08-08T13:46:26.239Z,24.7
2022-08-08T13:51:34.352Z,24.8
2022-08-08T13:56:44.996Z,24.8
2022-08-08T14:02:05.451Z,24.8
2022-08-08T14:07:09.488Z,24.8
2022-08-08T14:12:11.565Z,24.8
2022-08-08T14:17:22.267Z,24.8
2022-08-08T14:22:59.957Z,24.9
2022-08-08T14:28:01.990Z,24.9
2022-08-08T14:33:09.295Z,24.9
2022-08-08T14:38:33.741Z,24.9
2022-08-08T14:44:02.999Z,24.9
2022-08-08T14:49:20.302Z,24.9
2022-08-08T14:54:33.502Z,24.9
2022-08-08T14:59:44.074Z,25
2022-08-08T15:04:52.632Z,25
2022-08-08T15:09:54.324Z,25
2022-08-08T15:14:56.033Z,25
2022-08-08T15:19:57.714Z,25
2022-08-08T15:24:59.429Z,25.1
2022-08-08T15:30:02.392Z,25.1
2022-08-08T15:35:07.190Z,25.1
2022-08-08T15:40:11.057Z,25.1
2022-08-08T15:45:16.669Z,25.1
2022-08-08T15:50:20.760Z,25.1
2022-08-08T15:55:22.622Z,25.1
2022-08-08T16:00:26.624Z,25.1
2022-08-08T16:05:35.200Z,25.1
2022-08-08T16:13:01.530Z,25.1
2022-08-08T16:18:28.913Z,25
2022-08-08T16:23:32.594Z,25.1
2022-08-08T16:28:35.701Z,25.1
2022-08-08T16:33:40.118Z,25.1
2022-08-08T16:38:44.947Z,25.1
2022-08-08T16:43:51.412Z,25.1
2022-08-08T16:48:53.605Z,25.1
2022-08-08T16:54:58.261Z,25.1
2022-08-08T17:00:26.782Z,25.1
2022-08-08T17:05:31.314Z,25.1
2022-08-08T17:10:53.718Z,25.1
2022-08-08T17:16:00.262Z,25.1
2022-08-08T17:21:04.267Z,25.1
2022-08-08T17:26:06.115Z,25.1
2022-08-08T17:31:15.045Z,25.2
2022-08-08T17:36:55.496Z,25.2
2022-08-08T17:42:04.429Z,25.2
2022-08-08T17:47:06.340Z,25.2
2022-08-08T17:52:11.364Z,25.2
2022-08-08T17:57:14.213Z,25.3
2022-08-08T18:02:19.025Z,25.3
2022-08-08T18:08:01.594Z,25.3
2022-08-08T18:13:07.392Z,25.3
2022-08-08T18:18:28.106Z,25.3
2022-08-08T18:23:33.393Z,25.3
2022-08-08T18:28:41.256Z,25.3
2022-08-08T18:34:10.976Z,25.3
2022-08-08T18:39:27.362Z,25.3
2022-08-08T18:44:29.273Z,25.3
2022-08-08T18:49:40.742Z,25.3
2022-08-08T18:55:01.198Z,25.3
2022-08-08T19:00:16.037Z,25.4
2022-08-08T19:05:21.394Z,25.4
2022-08-08T19:10:23.043Z,25.4
2022-08-08T19:15:33.752Z,25.4
2022-08-08T19:20:35.961Z,25.4
2022-08-08T19:26:01.156Z,25.4
2022-08-08T19:31:22.748Z,25.4
2022-08-08T19:36:25.133Z,25.4
2022-08-08T19:41:29.657Z,25.4
2022-08-08T19:46:33.408Z,25.4
2022-08-08T19:51:39.658Z,25.4
2022-08-08T19:56:48.733Z,25.5
2022-08-08T20:01:59.781Z,25.5
2022-08-08T20:07:05.457Z,25.5
2022-08-08T20:14:10.908Z,25.5
2022-08-08T20:19:33.381Z,29.4
2022-08-08T20:24:36.664Z,32.1
2022-08-08T20:29:45.906Z,34.1
2022-08-08T20:35:00.918Z,35.7
2022-08-08T20:40:01.960Z,37.1
2022-08-08T20:45:02.672Z,38.1
2022-08-08T20:50:03.065Z,38.1
2022-08-08T20:55:07.567Z,37.9
2022-08-08T21:00:16.873Z,37.9
2022-08-08T21:05:17.242Z,37.9
2022-08-08T21:10:21.946Z,37.8
2022-08-08T21:16:04.572Z,37.8
2022-08-08T21:21:19.683Z,37.8
2022-08-08T21:26:39.677Z,37.7
2022-08-08T21:31:52.962Z,37.7
2022-08-08T21:36:58.252Z,37.7
2022-08-08T21:41:59.228Z,37.7
2022-08-08T21:48:03.218Z,37.7
2022-08-08T21:54:19.730Z,37.6
2022-08-08T22:00:02.160Z,37.6
2022-08-08T22:05:03.886Z,37.6
2022-08-08T22:10:04.314Z,37.5
2022-08-08T22:15:09.688Z,37.5
2022-08-08T22:20:18.949Z,37.5
2022-08-08T22:25:24.870Z,37.4
2022-08-08T22:30:29.349Z,37.4
2022-08-08T22:36:03.869Z,37.4
2022-08-08T22:41:16.178Z,37.4
2022-08-08T22:46:21.547Z,37.3
2022-08-08T22:51:28.881Z,37.2
2022-08-08T22:56:29.419Z,37.2
2022-08-08T23:02:03.139Z,37.2
2022-08-08T23:07:04.681Z,37.2
2022-08-08T23:12:18.611Z,37.1
2022-08-08T23:17:46.665Z,37.1
2022-08-08T23:22:54.577Z,37.1
2022-08-08T23:27:54.992Z,37
2022-08-08T23:32:55.306Z,37
2022-08-08T23:38:01.006Z,36.9
2022-08-08T23:43:04.525Z,36.9
2022-08-08T23:48:58.481Z,36.8
2022-08-08T23:54:39.159Z,36.7
2022-08-08T23:59:43.557Z,36.7
